Jrs Merkur — V2FD8 — position and weather

sailwx.info

Track history (hours):
 
Tides and Currents Weather Stations Pressure Air Temp Water Temp Dewpoint Dewpoint Depression Visibility Wind Speed Wind Dir Waves Ship Positions

Jrs Merkur

Last reported at 2016-Jul-24 21:15 UTC. Time now 2016-Jul-24 22:25 UTC.
Position N 50°54' E 001°08'.

Length 107 m; draft 8.2 m.

Type: Cargo ship. MMSI: 305644000.

Date/timePositionNaut miles runAvg speedWind from/ knotsBaromVisibWave heightAir tempDewpointWater temp
2016-Jul-24 21:15N 50°54' E 001°08'811.3
2016-Jul-24 20:33N 50°59' E 001°18'1110.6
2016-Jul-24 19:33N 51°06' E 001°30'9 9.0
2016-Jul-24 18:33N 51°12' E 001°41'8 8.1
2016-Jul-24 17:34N 51°18' E 001°49'7 7.5
2016-Jul-24 16:34N 51°25' E 001°55'8 7.6
2016-Jul-24 15:34N 51°31' E 002°02'9 8.6
2016-Jul-24 14:34N 51°38' E 002°11'10 9.6
2016-Jul-24 13:33N 51°45' E 002°21'1110.9
2016-Jul-24 12:33N 51°53' E 002°33'1211.5
2016-Jul-24 11:30N 52°02' E 002°46'1211.4
2016-Jul-24 10:27N 52°11' E 002°59'1011.1
2016-Jul-24 09:33N 52°19' E 003°08'20 9.8
2016-Jul-24 07:33N 52°35' E 003°28'9 9.0
2016-Jul-24 06:33N 52°42' E 003°37'9 8.7
2016-Jul-24 05:33N 52°49' E 003°46'9 8.8
2016-Jul-24 04:33N 52°56' E 003°54'1010.0
2016-Jul-24 03:33N 53°02' E 004°07'1411.1
2016-Jul-24 02:19N 53°11' E 004°25'2810.0
2016-Jul-23 23:32N 53°32' E 004°55'9 9.0
2016-Jul-23 22:33N 53°35' E 005°09'8 8.4
2016-Jul-23 21:34N 53°38' E 005°22'9 8.7
2016-Jul-23 20:34N 53°40' E 005°36'9 9.4
2016-Jul-23 19:33N 53°43' E 005°51'1010.4
2016-Jul-23 18:33N 53°47' E 006°08'1111.4
2016-Jul-23 17:33N 53°50' E 006°27'1211.6
2016-Jul-23 16:33N 53°53' E 006°46'1111.1
2016-Jul-23 15:34N 53°56' E 007°04'1410.4
2016-Jul-23 14:10N 53°60' E 007°27'6 9.8
2016-Jul-23 13:33N 54°01' E 007°37'9 9.4
2016-Jul-23 12:33N 54°02' E 007°53'9 9.0
2016-Jul-23 11:33N 54°01' E 008°08'9 8.6
2016-Jul-23 10:33N 53°60' E 008°23'9 9.0
2016-Jul-23 09:33N 53°57' E 008°38'1211.7
2016-Jul-23 08:33N 53°51' E 008°54'9 9.4
2016-Jul-23 07:34N 53°54' E 009°09'1 1.5
2016-Jul-23 06:33N 53°55' E 009°11'16 7.8
2016-Jul-23 04:32N 54°09' E 009°22'8 8.3
2016-Jul-23 03:30N 54°13' E 009°35'9 7.3
2016-Jul-23 02:18N 54°20' E 009°44'6 7.6
2016-Jul-23 01:32N 54°21' E 009°53'7 7.0
2016-Jul-23 00:32N 54°22' E 010°05'2 2.2
2016-Jul-22 23:33N 54°22' E 010°09'2 2.5
2016-Jul-22 22:33N 54°24' E 010°12'1 1.4
2016-Jul-22 21:32N 54°22' E 010°10'0 0.0
2016-Jul-22 20:32N 54°22' E 010°10'0 0.1
2016-Jul-22 18:33N 54°23' E 010°10'9 9.1
2016-Jul-22 17:33N 54°30' E 010°19'1010.0
2016-Jul-22 16:33N 54°34' E 010°35'1010.1
2016-Jul-22 15:34N 54°35' E 010°52'1110.9
2016-Jul-22 14:33N 54°36' E 011°11'1211.6
2016-Jul-22 13:33N 54°31' E 011°29'1111.1
2016-Jul-22 12:33N 54°26' E 011°47'1110.6
2016-Jul-22 11:33N 54°26' E 012°05'10 9.5
2016-Jul-22 10:33N 54°34' E 012°14'1010.1
2016-Jul-22 09:33N 54°41' E 012°27'1010.3
2016-Jul-22 08:33N 54°47' E 012°41'1010.4
2016-Jul-22 07:33N 54°51' E 012°58'2110.5
2016-Jul-22 05:33N 54°58' E 013°32'1010.2
2016-Jul-22 04:33N 55°01' E 013°49'1010.1
2016-Jul-22 03:34N 55°05' E 014°05'1010.4
2016-Jul-22 02:33N 55°13' E 014°17'1110.5
2016-Jul-22 01:33N 55°22' E 014°28'1010.1
2016-Jul-22 00:33N 55°29' E 014°41'1010.1
2016-Jul-21 23:33N 55°33' E 014°57'1010.1
2016-Jul-21 22:33N 55°39' E 015°12'1010.1
2016-Jul-21 21:33N 55°44' E 015°28'1110.3
2016-Jul-21 20:31N 55°49' E 015°44'1010.6
2016-Jul-21 19:33N 55°54' E 015°60'18310.1
2016-Jul-21 01:31N 58°32' E 018°50'  
2016-Jul-15 08:17N 59°38' E 020°57'911.7
2016-Jul-15 07:30N 59°35' E 021°14'1111.4
2016-Jul-15 06:33N 59°35' E 021°35'2411.8
2016-Jul-15 04:33N 59°36' E 022°22'1211.6
2016-Jul-15 03:30N 59°36' E 022°46'1111.7
2016-Jul-15 02:33N 59°37' E 023°08'1111.4
2016-Jul-15 01:33N 59°40' E 023°29'1211.8
2016-Jul-15 00:33N 59°43' E 023°52'1111.4
2016-Jul-14 23:33N 59°46' E 024°14'1211.4
2016-Jul-14 22:33N 59°49' E 024°36'1111.2
2016-Jul-14 21:33N 59°51' E 024°58'  
Track history (hours):
 
Tides and Currents Weather Stations Pressure Air Temp Water Temp Dewpoint Dewpoint Depression Visibility Wind Speed Wind Dir Waves Ship Positions

Jrs Merkur

Last reported at 2016-Jul-24 21:15 UTC. Time now 2016-Jul-24 22:25 UTC.
Position N 50°54' E 001°08'.

Length 107 m; draft 8.2 m.

Type: Cargo ship. MMSI: 305644000.

Date/timePositionNaut miles runAvg speedWind from/ knotsBaromVisibWave heightAir tempDewpointWater temp
2016-Jul-24 21:15N 50°54' E 001°08'811.3
2016-Jul-24 20:33N 50°59' E 001°18'1110.6
2016-Jul-24 19:33N 51°06' E 001°30'9 9.0
2016-Jul-24 18:33N 51°12' E 001°41'8 8.1
2016-Jul-24 17:34N 51°18' E 001°49'7 7.5
2016-Jul-24 16:34N 51°25' E 001°55'8 7.6
2016-Jul-24 15:34N 51°31' E 002°02'9 8.6
2016-Jul-24 14:34N 51°38' E 002°11'10 9.6
2016-Jul-24 13:33N 51°45' E 002°21'1110.9
2016-Jul-24 12:33N 51°53' E 002°33'1211.5
2016-Jul-24 11:30N 52°02' E 002°46'1211.4
2016-Jul-24 10:27N 52°11' E 002°59'1011.1
2016-Jul-24 09:33N 52°19' E 003°08'20 9.8
2016-Jul-24 07:33N 52°35' E 003°28'9 9.0
2016-Jul-24 06:33N 52°42' E 003°37'9 8.7
2016-Jul-24 05:33N 52°49' E 003°46'9 8.8
2016-Jul-24 04:33N 52°56' E 003°54'1010.0
2016-Jul-24 03:33N 53°02' E 004°07'1411.1
2016-Jul-24 02:19N 53°11' E 004°25'2810.0
2016-Jul-23 23:32N 53°32' E 004°55'9 9.0
2016-Jul-23 22:33N 53°35' E 005°09'8 8.4
2016-Jul-23 21:34N 53°38' E 005°22'9 8.7
2016-Jul-23 20:34N 53°40' E 005°36'9 9.4
2016-Jul-23 19:33N 53°43' E 005°51'1010.4
2016-Jul-23 18:33N 53°47' E 006°08'1111.4
2016-Jul-23 17:33N 53°50' E 006°27'1211.6
2016-Jul-23 16:33N 53°53' E 006°46'1111.1
2016-Jul-23 15:34N 53°56' E 007°04'1410.4
2016-Jul-23 14:10N 53°60' E 007°27'6 9.8
2016-Jul-23 13:33N 54°01' E 007°37'9 9.4
2016-Jul-23 12:33N 54°02' E 007°53'9 9.0
2016-Jul-23 11:33N 54°01' E 008°08'9 8.6
2016-Jul-23 10:33N 53°60' E 008°23'9 9.0
2016-Jul-23 09:33N 53°57' E 008°38'1211.7
2016-Jul-23 08:33N 53°51' E 008°54'9 9.4
2016-Jul-23 07:34N 53°54' E 009°09'1 1.5
2016-Jul-23 06:33N 53°55' E 009°11'16 7.8
2016-Jul-23 04:32N 54°09' E 009°22'8 8.3
2016-Jul-23 03:30N 54°13' E 009°35'9 7.3
2016-Jul-23 02:18N 54°20' E 009°44'6 7.6
2016-Jul-23 01:32N 54°21' E 009°53'7 7.0
2016-Jul-23 00:32N 54°22' E 010°05'2 2.2
2016-Jul-22 23:33N 54°22' E 010°09'2 2.5
2016-Jul-22 22:33N 54°24' E 010°12'1 1.4
2016-Jul-22 21:32N 54°22' E 010°10'0 0.0
2016-Jul-22 20:32N 54°22' E 010°10'0 0.1
2016-Jul-22 18:33N 54°23' E 010°10'9 9.1
2016-Jul-22 17:33N 54°30' E 010°19'1010.0
2016-Jul-22 16:33N 54°34' E 010°35'1010.1
2016-Jul-22 15:34N 54°35' E 010°52'1110.9
2016-Jul-22 14:33N 54°36' E 011°11'1211.6
2016-Jul-22 13:33N 54°31' E 011°29'1111.1
2016-Jul-22 12:33N 54°26' E 011°47'1110.6
2016-Jul-22 11:33N 54°26' E 012°05'10 9.5
2016-Jul-22 10:33N 54°34' E 012°14'1010.1
2016-Jul-22 09:33N 54°41' E 012°27'1010.3
2016-Jul-22 08:33N 54°47' E 012°41'1010.4
2016-Jul-22 07:33N 54°51' E 012°58'2110.5
2016-Jul-22 05:33N 54°58' E 013°32'1010.2
2016-Jul-22 04:33N 55°01' E 013°49'1010.1
2016-Jul-22 03:34N 55°05' E 014°05'1010.4
2016-Jul-22 02:33N 55°13' E 014°17'1110.5
2016-Jul-22 01:33N 55°22' E 014°28'1010.1
2016-Jul-22 00:33N 55°29' E 014°41'1010.1
2016-Jul-21 23:33N 55°33' E 014°57'1010.1
2016-Jul-21 22:33N 55°39' E 015°12'1010.1
2016-Jul-21 21:33N 55°44' E 015°28'1110.3
2016-Jul-21 20:31N 55°49' E 015°44'1010.6
2016-Jul-21 19:33N 55°54' E 015°60'18310.1
2016-Jul-21 01:31N 58°32' E 018°50'  
2016-Jul-15 08:17N 59°38' E 020°57'911.7
2016-Jul-15 07:30N 59°35' E 021°14'1111.4
2016-Jul-15 06:33N 59°35' E 021°35'2411.8
2016-Jul-15 04:33N 59°36' E 022°22'1211.6
2016-Jul-15 03:30N 59°36' E 022°46'1111.7
2016-Jul-15 02:33N 59°37' E 023°08'1111.4
2016-Jul-15 01:33N 59°40' E 023°29'1211.8
2016-Jul-15 00:33N 59°43' E 023°52'1111.4
2016-Jul-14 23:33N 59°46' E 024°14'1211.4
2016-Jul-14 22:33N 59°49' E 024°36'1111.2
2016-Jul-14 21:33N 59°51' E 024°58'  

Dump ship's entire track history